DLH117P EDDG-EDDN
Flight info
| Callsign | DLH117P |
|---|---|
| Flight time | 0h 39m |
| Altitude | 23000 |
| Route | DOMEG1E/07 DOMEG Z841 GMH Q603 TESGA Z719 ETOLU Z723 KOMIB T193 ERTES T194 DODAS DODAS1T |
| Aircraft | A319/M-SDE3FGHIRWY/LB1 |
Departure
| Time | 2026-05-08 19:48 |
|---|---|
| Airport | Münster Osnabrück Airport (EDDG) |
Arrival
| Time | 2026-05-08 20:28 |
|---|---|
| Airport | Nuremberg Airport (EDDN) |
| Time | Latitude | Longitude | Altitude | Speed | Heading |
|---|---|---|---|---|---|
| 2026-05-08 19:26 | 52.13161 | 7.69313 | 168 ft | 0 kts | 189° |
| 2026-05-08 19:43 | 52.13160 | 7.69312 | 168 ft | 0 kts | 196° |
| 2026-05-08 19:43 | 52.13160 | 7.69306 | 168 ft | 1 kts | 238° |
| 2026-05-08 19:43 | 52.13170 | 7.69284 | 168 ft | 6 kts | 316° |
| 2026-05-08 19:44 | 52.13215 | 7.69224 | 167 ft | 10 kts | 289° |
| 2026-05-08 19:44 | 52.13188 | 7.69124 | 167 ft | 11 kts | 242° |
| 2026-05-08 19:44 | 52.13163 | 7.68999 | 167 ft | 12 kts | 275° |
| 2026-05-08 19:44 | 52.13228 | 7.68918 | 167 ft | 15 kts | 340° |
| 2026-05-08 19:45 | 52.13334 | 7.68855 | 165 ft | 16 kts | 334° |
| 2026-05-08 19:45 | 52.13339 | 7.68715 | 168 ft | 12 kts | 257° |
| 2026-05-08 19:45 | 52.13313 | 7.68590 | 170 ft | 12 kts | 250° |
| 2026-05-08 19:45 | 52.13281 | 7.68441 | 169 ft | 16 kts | 251° |
| 2026-05-08 19:46 | 52.13238 | 7.68241 | 170 ft | 20 kts | 250° |
| 2026-05-08 19:46 | 52.13074 | 7.67464 | 162 ft | 25 kts | 251° |
| 2026-05-08 19:47 | 52.13037 | 7.67288 | 163 ft | 4 kts | 251° |
| 2026-05-08 19:47 | 52.13032 | 7.67175 | 165 ft | 22 kts | 283° |
| 2026-05-08 19:47 | 52.13160 | 7.67080 | 163 ft | 19 kts | 51° |
| 2026-05-08 19:47 | 52.13185 | 7.67163 | 162 ft | 0 kts | 70° |
| 2026-05-08 19:48 | 52.13195 | 7.67209 | 162 ft | 24 kts | 70° |
| 2026-05-08 19:48 | 52.13348 | 7.67932 | 165 ft | 108 kts | 71° |
| 2026-05-08 19:48 | 52.13664 | 7.69404 | 393 ft | 147 kts | 71° |
| 2026-05-08 19:48 | 52.13989 | 7.70945 | 1241 ft | 144 kts | 73° |
| 2026-05-08 19:49 | 52.14317 | 7.72498 | 1982 ft | 149 kts | 73° |
| 2026-05-08 19:49 | 52.14678 | 7.74209 | 2492 ft | 170 kts | 73° |
| 2026-05-08 19:49 | 52.15089 | 7.76160 | 2970 ft | 195 kts | 72° |
| 2026-05-08 19:49 | 52.15554 | 7.78380 | 3538 ft | 219 kts | 72° |
| 2026-05-08 19:50 | 52.15764 | 7.80908 | 4279 ft | 235 kts | 101° |
| 2026-05-08 19:50 | 52.14958 | 7.83295 | 5036 ft | 257 kts | 137° |
| 2026-05-08 19:50 | 52.13376 | 7.84775 | 5909 ft | 269 kts | 160° |
| 2026-05-08 19:50 | 52.11565 | 7.85605 | 6978 ft | 273 kts | 174° |
| 2026-05-08 19:51 | 52.09662 | 7.85432 | 8024 ft | 276 kts | 191° |
| 2026-05-08 19:51 | 52.07805 | 7.84585 | 9110 ft | 279 kts | 200° |
| 2026-05-08 19:51 | 52.06007 | 7.83287 | 10147 ft | 285 kts | 204° |
| 2026-05-08 19:51 | 52.04142 | 7.81948 | 10760 ft | 304 kts | 203° |
| 2026-05-08 19:52 | 52.02122 | 7.80541 | 11169 ft | 328 kts | 203° |
| 2026-05-08 19:52 | 51.99951 | 7.79044 | 11652 ft | 347 kts | 203° |
| 2026-05-08 19:52 | 51.97703 | 7.77487 | 12429 ft | 355 kts | 204° |
| 2026-05-08 19:52 | 51.95417 | 7.75891 | 13298 ft | 360 kts | 204° |
| 2026-05-08 19:53 | 51.93133 | 7.74289 | 14137 ft | 364 kts | 204° |
| 2026-05-08 19:53 | 51.90794 | 7.72643 | 14896 ft | 369 kts | 204° |
| 2026-05-08 19:53 | 51.88429 | 7.70974 | 15670 ft | 373 kts | 204° |
| 2026-05-08 19:53 | 51.86034 | 7.69283 | 16454 ft | 377 kts | 204° |
| 2026-05-08 19:54 | 51.83615 | 7.67576 | 17227 ft | 381 kts | 205° |
| 2026-05-08 19:54 | 51.81176 | 7.65860 | 18001 ft | 385 kts | 204° |
| 2026-05-08 19:54 | 51.78702 | 7.64127 | 18726 ft | 389 kts | 204° |
| 2026-05-08 19:54 | 51.76212 | 7.62385 | 19428 ft | 392 kts | 204° |
| 2026-05-08 19:55 | 51.73614 | 7.60990 | 20098 ft | 397 kts | 193° |
| 2026-05-08 19:55 | 51.70863 | 7.60421 | 20746 ft | 402 kts | 182° |
| 2026-05-08 19:55 | 51.68056 | 7.60730 | 21378 ft | 408 kts | 171° |
| 2026-05-08 19:55 | 51.65303 | 7.61923 | 21994 ft | 413 kts | 161° |
| 2026-05-08 19:56 | 51.62586 | 7.63489 | 22600 ft | 417 kts | 161° |
| 2026-05-08 19:56 | 51.59838 | 7.65061 | 23037 ft | 420 kts | 161° |
| 2026-05-08 19:56 | 51.57070 | 7.66637 | 23132 ft | 429 kts | 161° |
| 2026-05-08 19:56 | 51.54207 | 7.68266 | 23138 ft | 439 kts | 161° |
| 2026-05-08 19:57 | 51.51317 | 7.69910 | 23139 ft | 441 kts | 161° |
| 2026-05-08 19:57 | 51.48422 | 7.71553 | 23137 ft | 442 kts | 161° |
| 2026-05-08 19:57 | 51.45540 | 7.73254 | 23136 ft | 442 kts | 157° |
| 2026-05-08 19:57 | 51.42857 | 7.75697 | 23141 ft | 444 kts | 149° |
| 2026-05-08 19:58 | 51.40240 | 7.78324 | 23139 ft | 444 kts | 149° |
| 2026-05-08 19:58 | 51.37631 | 7.80957 | 23141 ft | 444 kts | 149° |
| 2026-05-08 19:58 | 51.35020 | 7.83590 | 23140 ft | 444 kts | 149° |
| 2026-05-08 19:58 | 51.32404 | 7.86221 | 23146 ft | 444 kts | 149° |
| 2026-05-08 19:59 | 51.29785 | 7.88850 | 23147 ft | 444 kts | 149° |
| 2026-05-08 19:59 | 51.27174 | 7.91468 | 23151 ft | 443 kts | 149° |
| 2026-05-08 19:59 | 51.24594 | 7.94056 | 23150 ft | 443 kts | 149° |
| 2026-05-08 19:59 | 51.21981 | 7.96680 | 23151 ft | 443 kts | 149° |
| 2026-05-08 20:00 | 51.19375 | 7.99291 | 23152 ft | 443 kts | 149° |
| 2026-05-08 20:00 | 51.16763 | 8.01899 | 23158 ft | 443 kts | 149° |
| 2026-05-08 20:00 | 51.14152 | 8.04495 | 23155 ft | 443 kts | 149° |
| 2026-05-08 20:00 | 51.11539 | 8.07090 | 23153 ft | 442 kts | 149° |
| 2026-05-08 20:01 | 51.08926 | 8.09688 | 23154 ft | 442 kts | 149° |
| 2026-05-08 20:01 | 51.07194 | 8.11410 | 23152 ft | 442 kts | 149° |
| 2026-05-08 20:01 | 51.04585 | 8.14003 | 23142 ft | 442 kts | 149° |
| 2026-05-08 20:01 | 51.01983 | 8.16585 | 23149 ft | 441 kts | 149° |
| 2026-05-08 20:02 | 50.99374 | 8.19171 | 23151 ft | 441 kts | 149° |
| 2026-05-08 20:02 | 50.96765 | 8.21748 | 23151 ft | 441 kts | 149° |
| 2026-05-08 20:02 | 50.94160 | 8.24318 | 23150 ft | 441 kts | 149° |
| 2026-05-08 20:02 | 50.91559 | 8.26877 | 23148 ft | 440 kts | 149° |
| 2026-05-08 20:03 | 50.88951 | 8.29435 | 23145 ft | 440 kts | 149° |
| 2026-05-08 20:03 | 50.86348 | 8.31987 | 23143 ft | 440 kts | 149° |
| 2026-05-08 20:03 | 50.83751 | 8.34536 | 23137 ft | 440 kts | 149° |
| 2026-05-08 20:03 | 50.81154 | 8.37082 | 23134 ft | 439 kts | 149° |
| 2026-05-08 20:04 | 50.78550 | 8.39631 | 23133 ft | 439 kts | 149° |
| 2026-05-08 20:04 | 50.75951 | 8.42178 | 23132 ft | 439 kts | 149° |
| 2026-05-08 20:04 | 50.73351 | 8.44722 | 23128 ft | 439 kts | 150° |
| 2026-05-08 20:04 | 50.70750 | 8.47258 | 23126 ft | 439 kts | 150° |
| 2026-05-08 20:05 | 50.68150 | 8.49786 | 23124 ft | 440 kts | 150° |
| 2026-05-08 20:05 | 50.65578 | 8.52280 | 23122 ft | 440 kts | 150° |
| 2026-05-08 20:05 | 50.62969 | 8.54810 | 23124 ft | 440 kts | 150° |
| 2026-05-08 20:05 | 50.60358 | 8.57340 | 23126 ft | 440 kts | 150° |
| 2026-05-08 20:06 | 50.57746 | 8.59869 | 23119 ft | 441 kts | 150° |
| 2026-05-08 20:06 | 50.55137 | 8.62388 | 23118 ft | 441 kts | 150° |
| 2026-05-08 20:06 | 50.52519 | 8.64910 | 23121 ft | 440 kts | 150° |
| 2026-05-08 20:06 | 50.49903 | 8.67432 | 23125 ft | 440 kts | 150° |
| 2026-05-08 20:07 | 50.47290 | 8.69954 | 23126 ft | 440 kts | 150° |
| 2026-05-08 20:07 | 50.44678 | 8.72468 | 23125 ft | 440 kts | 150° |
| 2026-05-08 20:07 | 50.42065 | 8.74982 | 23128 ft | 440 kts | 150° |
| 2026-05-08 20:07 | 50.39453 | 8.77494 | 23129 ft | 440 kts | 150° |
| 2026-05-08 20:08 | 50.36843 | 8.80001 | 23126 ft | 440 kts | 150° |
| 2026-05-08 20:08 | 50.34228 | 8.82503 | 23121 ft | 440 kts | 150° |
| 2026-05-08 20:08 | 50.31620 | 8.85021 | 23119 ft | 441 kts | 148° |
| 2026-05-08 20:08 | 50.29231 | 8.88029 | 23113 ft | 443 kts | 136° |
| 2026-05-08 20:09 | 50.27376 | 8.91797 | 23117 ft | 446 kts | 121° |
| 2026-05-08 20:09 | 50.26180 | 8.96270 | 23119 ft | 448 kts | 107° |
| 2026-05-08 20:09 | 50.25326 | 9.00950 | 23117 ft | 448 kts | 107° |
| 2026-05-08 20:09 | 50.24495 | 9.05641 | 23117 ft | 448 kts | 106° |
| 2026-05-08 20:10 | 50.23676 | 9.10343 | 23118 ft | 448 kts | 106° |
| 2026-05-08 20:10 | 50.22851 | 9.15038 | 23118 ft | 448 kts | 108° |
| 2026-05-08 20:10 | 50.21594 | 9.19476 | 23116 ft | 446 kts | 123° |
| 2026-05-08 20:10 | 50.19777 | 9.23379 | 23115 ft | 445 kts | 129° |
| 2026-05-08 20:11 | 50.17896 | 9.27206 | 23116 ft | 445 kts | 129° |
| 2026-05-08 20:11 | 50.16001 | 9.31035 | 23118 ft | 445 kts | 129° |
| 2026-05-08 20:11 | 50.14103 | 9.34854 | 23119 ft | 445 kts | 129° |
| 2026-05-08 20:11 | 50.12203 | 9.38668 | 23098 ft | 447 kts | 129° |
| 2026-05-08 20:12 | 50.10287 | 9.42510 | 22708 ft | 449 kts | 129° |
| 2026-05-08 20:12 | 50.08377 | 9.46343 | 22299 ft | 447 kts | 129° |
| 2026-05-08 20:12 | 50.06479 | 9.50151 | 21899 ft | 444 kts | 129° |
| 2026-05-08 20:12 | 50.04595 | 9.53940 | 21507 ft | 441 kts | 129° |
| 2026-05-08 20:13 | 50.02721 | 9.57700 | 21120 ft | 438 kts | 129° |
| 2026-05-08 20:13 | 50.00866 | 9.61414 | 20568 ft | 432 kts | 129° |
| 2026-05-08 20:13 | 49.99030 | 9.65084 | 19841 ft | 427 kts | 129° |
| 2026-05-08 20:13 | 49.97214 | 9.68707 | 19161 ft | 423 kts | 129° |
| 2026-05-08 20:14 | 49.95409 | 9.72294 | 18514 ft | 419 kts | 129° |
| 2026-05-08 20:14 | 49.93621 | 9.75840 | 17813 ft | 415 kts | 129° |
| 2026-05-08 20:14 | 49.91852 | 9.79350 | 17142 ft | 411 kts | 129° |
| 2026-05-08 20:14 | 49.90102 | 9.82830 | 16522 ft | 408 kts | 129° |
| 2026-05-08 20:15 | 49.88363 | 9.86283 | 15937 ft | 404 kts | 129° |
| 2026-05-08 20:15 | 49.86637 | 9.89703 | 15336 ft | 401 kts | 129° |
| 2026-05-08 20:15 | 49.84946 | 9.93045 | 14744 ft | 397 kts | 129° |
| 2026-05-08 20:15 | 49.83242 | 9.96406 | 14275 ft | 396 kts | 129° |
| 2026-05-08 20:16 | 49.81541 | 9.99759 | 14108 ft | 396 kts | 129° |
| 2026-05-08 20:16 | 49.79835 | 10.03118 | 14128 ft | 398 kts | 129° |
| 2026-05-08 20:16 | 49.78122 | 10.06484 | 14129 ft | 398 kts | 129° |
| 2026-05-08 20:16 | 49.76417 | 10.09829 | 13676 ft | 393 kts | 129° |
| 2026-05-08 20:17 | 49.74732 | 10.13130 | 12924 ft | 385 kts | 129° |
| 2026-05-08 20:17 | 49.73140 | 10.16254 | 12768 ft | 355 kts | 129° |
| 2026-05-08 20:17 | 49.71663 | 10.19153 | 12523 ft | 333 kts | 129° |
| 2026-05-08 20:17 | 49.70255 | 10.21917 | 11927 ft | 324 kts | 129° |
| 2026-05-08 20:18 | 49.68863 | 10.24638 | 11237 ft | 320 kts | 129° |
| 2026-05-08 20:18 | 49.67490 | 10.27314 | 10539 ft | 317 kts | 129° |
| 2026-05-08 20:18 | 49.66126 | 10.29967 | 9826 ft | 313 kts | 129° |
| 2026-05-08 20:18 | 49.64778 | 10.32586 | 9061 ft | 310 kts | 129° |
| 2026-05-08 20:19 | 49.63444 | 10.35177 | 8290 ft | 307 kts | 129° |
| 2026-05-08 20:19 | 49.62130 | 10.37731 | 7690 ft | 298 kts | 129° |
| 2026-05-08 20:19 | 49.60874 | 10.40170 | 7280 ft | 284 kts | 130° |
| 2026-05-08 20:19 | 49.59654 | 10.42535 | 6670 ft | 280 kts | 130° |
| 2026-05-08 20:20 | 49.58449 | 10.44864 | 6030 ft | 276 kts | 130° |
| 2026-05-08 20:20 | 49.57258 | 10.47161 | 5402 ft | 271 kts | 129° |
| 2026-05-08 20:20 | 49.56129 | 10.49439 | 5064 ft | 266 kts | 123° |
| 2026-05-08 20:20 | 49.55319 | 10.51973 | 4999 ft | 260 kts | 109° |
| 2026-05-08 20:21 | 49.54921 | 10.54645 | 5004 ft | 260 kts | 99° |
| 2026-05-08 20:21 | 49.54683 | 10.57381 | 5008 ft | 251 kts | 98° |
| 2026-05-08 20:21 | 49.54456 | 10.59970 | 5004 ft | 240 kts | 98° |
| 2026-05-08 20:21 | 49.54220 | 10.62498 | 5008 ft | 238 kts | 99° |
| 2026-05-08 20:22 | 49.53982 | 10.65017 | 5004 ft | 237 kts | 99° |
| 2026-05-08 20:22 | 49.53749 | 10.67491 | 5005 ft | 226 kts | 99° |
| 2026-05-08 20:22 | 49.53528 | 10.69826 | 5006 ft | 217 kts | 99° |
| 2026-05-08 20:22 | 49.53310 | 10.72121 | 5003 ft | 216 kts | 99° |
| 2026-05-08 20:23 | 49.53093 | 10.74412 | 4992 ft | 217 kts | 99° |
| 2026-05-08 20:23 | 49.52874 | 10.76705 | 4796 ft | 216 kts | 99° |
| 2026-05-08 20:23 | 49.52657 | 10.78982 | 4523 ft | 214 kts | 99° |
| 2026-05-08 20:23 | 49.52441 | 10.81248 | 4237 ft | 214 kts | 99° |
| 2026-05-08 20:24 | 49.52225 | 10.83506 | 3951 ft | 213 kts | 99° |
| 2026-05-08 20:24 | 49.52009 | 10.85757 | 3667 ft | 212 kts | 98° |
| 2026-05-08 20:24 | 49.51793 | 10.87997 | 3383 ft | 211 kts | 98° |
| 2026-05-08 20:24 | 49.51584 | 10.90170 | 3129 ft | 199 kts | 98° |
| 2026-05-08 20:25 | 49.51388 | 10.92195 | 2844 ft | 182 kts | 98° |
| 2026-05-08 20:25 | 49.51211 | 10.94028 | 2626 ft | 162 kts | 97° |
| 2026-05-08 20:25 | 49.51057 | 10.95609 | 2412 ft | 139 kts | 97° |
| 2026-05-08 20:25 | 49.50920 | 10.97021 | 2231 ft | 130 kts | 97° |
| 2026-05-08 20:26 | 49.50790 | 10.98364 | 2061 ft | 125 kts | 96° |
| 2026-05-08 20:26 | 49.50661 | 10.99691 | 1885 ft | 126 kts | 96° |
| 2026-05-08 20:26 | 49.50531 | 11.01033 | 1703 ft | 127 kts | 96° |
| 2026-05-08 20:26 | 49.50399 | 11.02392 | 1494 ft | 129 kts | 96° |
| 2026-05-08 20:27 | 49.50264 | 11.03741 | 1333 ft | 130 kts | 97° |
| 2026-05-08 20:27 | 49.50129 | 11.05118 | 1165 ft | 130 kts | 96° |
| 2026-05-08 20:27 | 49.49998 | 11.06487 | 1041 ft | 129 kts | 97° |
| 2026-05-08 20:27 | 49.49882 | 11.07696 | 1034 ft | 92 kts | 98° |
| 2026-05-08 20:28 | 49.49809 | 11.08425 | 1036 ft | 29 kts | 98° |
| 2026-05-08 20:28 | 49.49781 | 11.08532 | 1036 ft | 1 kts | 135° |
| 2026-05-08 20:28 | 49.49720 | 11.08557 | 1038 ft | 21 kts | 188° |
| 2026-05-08 20:28 | 49.49671 | 11.08498 | 1037 ft | 0 kts | 230° |
| 2026-05-08 20:29 | 49.49665 | 11.08488 | 1037 ft | 5 kts | 231° |
| 2026-05-08 20:29 | 49.49617 | 11.08390 | 1036 ft | 13 kts | 232° |
| 2026-05-08 20:29 | 49.49542 | 11.08312 | 1035 ft | 15 kts | 248° |
| 2026-05-08 20:29 | 49.49554 | 11.08115 | 1032 ft | 20 kts | 280° |
| 2026-05-08 20:30 | 49.49574 | 11.07899 | 1031 ft | 14 kts | 272° |
| 2026-05-08 20:30 | 49.49515 | 11.07852 | 1029 ft | 4 kts | 191° |
| 2026-05-08 20:30 | 49.49508 | 11.07851 | 1029 ft | 0 kts | 188° |